sensor_id;sensor_type;location;lat;lon;timestamp;P1;durP1;ratioP1;P2;durP2;ratioP2
55497;SDS011;41357;52.806;18.268;2023-06-14T00:00:44;6.05;;;3.70;;
55497;SDS011;41357;52.806;18.268;2023-06-14T00:03:11;10.15;;;4.68;;
55497;SDS011;41357;52.806;18.268;2023-06-14T00:05:42;7.78;;;4.95;;
55497;SDS011;41357;52.806;18.268;2023-06-14T00:08:08;13.25;;;4.25;;
55497;SDS011;41357;52.806;18.268;2023-06-14T00:10:36;7.53;;;4.63;;
55497;SDS011;41357;52.806;18.268;2023-06-14T00:13:02;8.00;;;5.45;;
55497;SDS011;41357;52.806;18.268;2023-06-14T00:15:35;7.68;;;4.70;;
55497;SDS011;41357;52.806;18.268;2023-06-14T00:18:01;7.00;;;4.43;;
55497;SDS011;41357;52.806;18.268;2023-06-14T00:20:28;7.80;;;3.67;;
55497;SDS011;41357;52.806;18.268;2023-06-14T00:22:55;6.57;;;3.88;;
55497;SDS011;41357;52.806;18.268;2023-06-14T00:25:22;6.03;;;3.72;;
55497;SDS011;41357;52.806;18.268;2023-06-14T00:27:50;7.95;;;4.00;;
55497;SDS011;41357;52.806;18.268;2023-06-14T00:30:16;6.68;;;4.30;;
55497;SDS011;41357;52.806;18.268;2023-06-14T00:32:43;8.18;;;4.75;;
55497;SDS011;41357;52.806;18.268;2023-06-14T00:35:09;10.20;;;5.70;;
55497;SDS011;41357;52.806;18.268;2023-06-14T00:37:35;10.93;;;6.03;;
55497;SDS011;41357;52.806;18.268;2023-06-14T00:40:02;7.07;;;5.38;;
55497;SDS011;41357;52.806;18.268;2023-06-14T00:42:29;11.30;;;4.97;;
55497;SDS011;41357;52.806;18.268;2023-06-14T00:44:56;9.05;;;4.75;;
55497;SDS011;41357;52.806;18.268;2023-06-14T00:47:22;8.80;;;4.00;;
55497;SDS011;41357;52.806;18.268;2023-06-14T00:49:52;12.02;;;4.55;;
55497;SDS011;41357;52.806;18.268;2023-06-14T00:52:18;8.95;;;4.13;;
55497;SDS011;41357;52.806;18.268;2023-06-14T00:54:45;10.60;;;4.20;;
55497;SDS011;41357;52.806;18.268;2023-06-14T00:57:12;6.68;;;3.72;;
55497;SDS011;41357;52.806;18.268;2023-06-14T00:59:41;13.70;;;3.97;;
55497;SDS011;41357;52.806;18.268;2023-06-14T01:02:08;10.38;;;4.15;;
55497;SDS011;41357;52.806;18.268;2023-06-14T01:04:34;13.82;;;3.88;;
55497;SDS011;41357;52.806;18.268;2023-06-14T01:09:32;4.53;;;3.45;;
55497;SDS011;41357;52.806;18.268;2023-06-14T01:12:07;7.82;;;3.92;;
55497;SDS011;41357;52.806;18.268;2023-06-14T01:14:35;6.13;;;3.38;;
55497;SDS011;41357;52.806;18.268;2023-06-14T01:17:02;10.30;;;3.58;;
55497;SDS011;41357;52.806;18.268;2023-06-14T01:19:29;8.45;;;3.42;;
55497;SDS011;41357;52.806;18.268;2023-06-14T01:21:59;8.23;;;3.65;;
55497;SDS011;41357;52.806;18.268;2023-06-14T01:24:26;7.63;;;3.45;;
55497;SDS011;41357;52.806;18.268;2023-06-14T01:26:54;13.73;;;3.60;;
55497;SDS011;41357;52.806;18.268;2023-06-14T01:29:22;8.93;;;3.30;;
55497;SDS011;41357;52.806;18.268;2023-06-14T01:31:48;9.50;;;3.63;;
55497;SDS011;41357;52.806;18.268;2023-06-14T01:34:15;7.15;;;3.40;;
55497;SDS011;41357;52.806;18.268;2023-06-14T01:36:43;4.78;;;3.50;;
55497;SDS011;41357;52.806;18.268;2023-06-14T01:39:10;17.00;;;4.63;;
55497;SDS011;41357;52.806;18.268;2023-06-14T01:41:37;5.78;;;3.65;;
55497;SDS011;41357;52.806;18.268;2023-06-14T01:44:04;5.25;;;3.08;;
55497;SDS011;41357;52.806;18.268;2023-06-14T01:46:30;8.80;;;3.72;;
55497;SDS011;41357;52.806;18.268;2023-06-14T01:48:56;6.38;;;3.72;;
55497;SDS011;41357;52.806;18.268;2023-06-14T01:51:23;9.18;;;3.90;;
55497;SDS011;41357;52.806;18.268;2023-06-14T01:53:49;7.15;;;3.88;;
55497;SDS011;41357;52.806;18.268;2023-06-14T01:56:15;8.30;;;4.25;;
55497;SDS011;41357;52.806;18.268;2023-06-14T01:58:41;5.35;;;3.70;;
55497;SDS011;41357;52.806;18.268;2023-06-14T02:01:08;10.80;;;4.25;;
55497;SDS011;41357;52.806;18.268;2023-06-14T02:03:36;5.68;;;4.13;;
55497;SDS011;41357;52.806;18.268;2023-06-14T02:06:03;9.52;;;3.60;;
55497;SDS011;41357;52.806;18.268;2023-06-14T02:08:30;10.57;;;4.03;;
55497;SDS011;41357;52.806;18.268;2023-06-14T02:10:56;9.88;;;3.38;;
55497;SDS011;41357;52.806;18.268;2023-06-14T02:13:22;5.35;;;3.17;;
55497;SDS011;41357;52.806;18.268;2023-06-14T02:15:48;5.90;;;3.78;;
55497;SDS011;41357;52.806;18.268;2023-06-14T02:18:19;20.70;;;4.55;;
55497;SDS011;41357;52.806;18.268;2023-06-14T02:20:46;5.93;;;4.00;;
55497;SDS011;41357;52.806;18.268;2023-06-14T02:23:12;6.50;;;3.63;;
55497;SDS011;41357;52.806;18.268;2023-06-14T02:25:38;8.52;;;4.40;;
55497;SDS011;41357;52.806;18.268;2023-06-14T02:28:05;10.70;;;4.32;;
55497;SDS011;41357;52.806;18.268;2023-06-14T02:30:31;10.13;;;4.50;;
55497;SDS011;41357;52.806;18.268;2023-06-14T02:32:57;10.27;;;4.30;;
55497;SDS011;41357;52.806;18.268;2023-06-14T02:35:24;8.68;;;4.40;;
55497;SDS011;41357;52.806;18.268;2023-06-14T02:37:52;10.40;;;4.50;;
55497;SDS011;41357;52.806;18.268;2023-06-14T02:40:18;9.05;;;4.20;;
55497;SDS011;41357;52.806;18.268;2023-06-14T02:42:45;7.25;;;4.30;;
55497;SDS011;41357;52.806;18.268;2023-06-14T02:45:11;9.25;;;4.72;;
55497;SDS011;41357;52.806;18.268;2023-06-14T02:47:37;6.47;;;4.65;;
55497;SDS011;41357;52.806;18.268;2023-06-14T02:50:03;9.32;;;5.90;;
55497;SDS011;41357;52.806;18.268;2023-06-14T02:52:29;12.80;;;4.78;;
55497;SDS011;41357;52.806;18.268;2023-06-14T02:54:58;7.47;;;4.78;;
55497;SDS011;41357;52.806;18.268;2023-06-14T02:57:24;5.75;;;4.47;;
55497;SDS011;41357;52.806;18.268;2023-06-14T02:59:50;9.40;;;4.97;;
55497;SDS011;41357;52.806;18.268;2023-06-14T03:02:17;9.68;;;5.45;;
55497;SDS011;41357;52.806;18.268;2023-06-14T03:04:43;10.70;;;5.53;;
55497;SDS011;41357;52.806;18.268;2023-06-14T03:07:11;9.05;;;5.35;;
55497;SDS011;41357;52.806;18.268;2023-06-14T03:09:38;10.23;;;5.45;;
55497;SDS011;41357;52.806;18.268;2023-06-14T03:12:05;8.20;;;5.60;;
55497;SDS011;41357;52.806;18.268;2023-06-14T03:14:32;12.40;;;6.05;;
55497;SDS011;41357;52.806;18.268;2023-06-14T03:16:58;10.40;;;5.57;;
55497;SDS011;41357;52.806;18.268;2023-06-14T03:19:25;8.32;;;5.20;;
55497;SDS011;41357;52.806;18.268;2023-06-14T03:21:52;16.48;;;5.60;;
55497;SDS011;41357;52.806;18.268;2023-06-14T03:24:21;6.37;;;4.93;;
55497;SDS011;41357;52.806;18.268;2023-06-14T03:26:47;15.20;;;5.35;;
55497;SDS011;41357;52.806;18.268;2023-06-14T03:29:14;6.97;;;5.60;;
55497;SDS011;41357;52.806;18.268;2023-06-14T03:31:55;6.10;;;5.10;;
55497;SDS011;41357;52.806;18.268;2023-06-14T03:34:22;8.38;;;5.60;;
55497;SDS011;41357;52.806;18.268;2023-06-14T03:36:48;7.43;;;5.47;;
55497;SDS011;41357;52.806;18.268;2023-06-14T03:39:14;6.60;;;5.38;;
55497;SDS011;41357;52.806;18.268;2023-06-14T03:41:40;9.40;;;5.70;;
55497;SDS011;41357;52.806;18.268;2023-06-14T03:44:06;8.07;;;5.63;;
55497;SDS011;41357;52.806;18.268;2023-06-14T03:46:32;9.50;;;6.15;;
55497;SDS011;41357;52.806;18.268;2023-06-14T03:48:58;7.15;;;5.55;;
55497;SDS011;41357;52.806;18.268;2023-06-14T03:51:25;10.10;;;6.32;;
55497;SDS011;41357;52.806;18.268;2023-06-14T03:53:51;9.15;;;6.85;;
55497;SDS011;41357;52.806;18.268;2023-06-14T03:56:17;7.88;;;6.35;;
55497;SDS011;41357;52.806;18.268;2023-06-14T03:58:43;9.15;;;6.90;;
55497;SDS011;41357;52.806;18.268;2023-06-14T04:01:10;10.30;;;7.20;;
55497;SDS011;41357;52.806;18.268;2023-06-14T04:03:37;12.05;;;6.90;;
55497;SDS011;41357;52.806;18.268;2023-06-14T04:06:05;12.07;;;7.35;;
55497;SDS011;41357;52.806;18.268;2023-06-14T04:08:32;11.10;;;6.90;;
55497;SDS011;41357;52.806;18.268;2023-06-14T04:11:00;14.02;;;6.95;;
55497;SDS011;41357;52.806;18.268;2023-06-14T04:13:26;9.88;;;7.43;;
55497;SDS011;41357;52.806;18.268;2023-06-14T04:15:52;10.07;;;7.43;;
55497;SDS011;41357;52.806;18.268;2023-06-14T04:18:18;15.55;;;7.88;;
55497;SDS011;41357;52.806;18.268;2023-06-14T04:20:45;10.18;;;7.07;;
55497;SDS011;41357;52.806;18.268;2023-06-14T04:23:15;9.93;;;7.60;;
55497;SDS011;41357;52.806;18.268;2023-06-14T04:25:43;15.63;;;7.82;;
55497;SDS011;41357;52.806;18.268;2023-06-14T04:28:13;14.57;;;8.20;;
55497;SDS011;41357;52.806;18.268;2023-06-14T04:30:40;10.40;;;8.43;;
55497;SDS011;41357;52.806;18.268;2023-06-14T04:33:07;11.07;;;7.85;;
55497;SDS011;41357;52.806;18.268;2023-06-14T04:35:34;11.68;;;7.68;;
55497;SDS011;41357;52.806;18.268;2023-06-14T04:38:02;10.43;;;8.07;;
55497;SDS011;41357;52.806;18.268;2023-06-14T04:40:34;10.68;;;8.50;;
55497;SDS011;41357;52.806;18.268;2023-06-14T04:43:07;11.25;;;8.48;;
55497;SDS011;41357;52.806;18.268;2023-06-14T04:45:33;13.40;;;8.93;;
55497;SDS011;41357;52.806;18.268;2023-06-14T04:48:02;13.50;;;8.50;;
55497;SDS011;41357;52.806;18.268;2023-06-14T04:50:28;11.48;;;8.63;;
55497;SDS011;41357;52.806;18.268;2023-06-14T04:52:54;11.77;;;8.57;;
55497;SDS011;41357;52.806;18.268;2023-06-14T04:55:21;17.52;;;8.43;;
55497;SDS011;41357;52.806;18.268;2023-06-14T04:57:48;9.95;;;8.05;;
55497;SDS011;41357;52.806;18.268;2023-06-14T05:00:18;13.10;;;8.73;;
55497;SDS011;41357;52.806;18.268;2023-06-14T05:02:44;11.95;;;9.05;;
55497;SDS011;41357;52.806;18.268;2023-06-14T05:05:12;13.57;;;9.30;;
55497;SDS011;41357;52.806;18.268;2023-06-14T05:07:38;12.18;;;8.25;;
55497;SDS011;41357;52.806;18.268;2023-06-14T05:10:04;13.95;;;8.18;;
55497;SDS011;41357;52.806;18.268;2023-06-14T05:12:31;12.70;;;8.90;;
55497;SDS011;41357;52.806;18.268;2023-06-14T05:14:57;10.30;;;8.27;;
55497;SDS011;41357;52.806;18.268;2023-06-14T05:17:23;11.20;;;8.77;;
55497;SDS011;41357;52.806;18.268;2023-06-14T05:19:49;17.85;;;8.95;;
55497;SDS011;41357;52.806;18.268;2023-06-14T05:22:16;15.25;;;9.10;;
55497;SDS011;41357;52.806;18.268;2023-06-14T05:24:42;11.48;;;9.55;;
55497;SDS011;41357;52.806;18.268;2023-06-14T05:27:08;18.73;;;9.60;;
55497;SDS011;41357;52.806;18.268;2023-06-14T05:29:34;11.43;;;8.73;;
55497;SDS011;41357;52.806;18.268;2023-06-14T05:32:01;12.90;;;9.80;;
55497;SDS011;41357;52.806;18.268;2023-06-14T05:34:27;14.65;;;9.85;;
55497;SDS011;41357;52.806;18.268;2023-06-14T05:36:53;13.32;;;9.48;;
55497;SDS011;41357;52.806;18.268;2023-06-14T05:39:20;23.00;;;10.95;;
55497;SDS011;41357;52.806;18.268;2023-06-14T05:41:46;19.88;;;10.90;;
55497;SDS011;41357;52.806;18.268;2023-06-14T05:44:12;21.80;;;10.65;;
55497;SDS011;41357;52.806;18.268;2023-06-14T05:46:38;20.92;;;11.00;;
55497;SDS011;41357;52.806;18.268;2023-06-14T05:49:05;15.65;;;9.73;;
55497;SDS011;41357;52.806;18.268;2023-06-14T05:51:31;12.52;;;9.23;;
55497;SDS011;41357;52.806;18.268;2023-06-14T05:53:57;18.65;;;9.25;;
55497;SDS011;41357;52.806;18.268;2023-06-14T05:56:23;14.45;;;9.60;;
55497;SDS011;41357;52.806;18.268;2023-06-14T05:58:50;16.40;;;9.10;;
55497;SDS011;41357;52.806;18.268;2023-06-14T06:01:16;14.50;;;8.90;;
55497;SDS011;41357;52.806;18.268;2023-06-14T06:03:42;21.67;;;13.18;;
55497;SDS011;41357;52.806;18.268;2023-06-14T06:06:12;19.92;;;10.35;;
55497;SDS011;41357;52.806;18.268;2023-06-14T06:08:39;16.70;;;10.23;;
55497;SDS011;41357;52.806;18.268;2023-06-14T06:11:05;17.95;;;10.55;;
55497;SDS011;41357;52.806;18.268;2023-06-14T06:13:31;13.63;;;8.75;;
55497;SDS011;41357;52.806;18.268;2023-06-14T06:15:58;12.68;;;9.35;;
55497;SDS011;41357;52.806;18.268;2023-06-14T06:18:24;15.93;;;9.82;;
55497;SDS011;41357;52.806;18.268;2023-06-14T06:20:50;15.18;;;9.35;;
55497;SDS011;41357;52.806;18.268;2023-06-14T06:23:16;16.70;;;10.02;;
55497;SDS011;41357;52.806;18.268;2023-06-14T06:25:42;16.80;;;9.52;;
55497;SDS011;41357;52.806;18.268;2023-06-14T06:28:08;15.27;;;9.35;;
55497;SDS011;41357;52.806;18.268;2023-06-14T06:30:35;17.25;;;10.00;;
55497;SDS011;41357;52.806;18.268;2023-06-14T06:33:01;16.05;;;9.38;;
55497;SDS011;41357;52.806;18.268;2023-06-14T06:35:28;12.48;;;9.07;;
55497;SDS011;41357;52.806;18.268;2023-06-14T06:37:55;14.65;;;9.15;;
55497;SDS011;41357;52.806;18.268;2023-06-14T06:40:22;13.98;;;8.55;;
55497;SDS011;41357;52.806;18.268;2023-06-14T06:42:48;12.32;;;8.75;;
55497;SDS011;41357;52.806;18.268;2023-06-14T06:45:15;16.23;;;9.48;;
55497;SDS011;41357;52.806;18.268;2023-06-14T06:47:41;13.27;;;8.95;;
55497;SDS011;41357;52.806;18.268;2023-06-14T06:50:07;13.73;;;9.27;;
55497;SDS011;41357;52.806;18.268;2023-06-14T06:52:33;16.95;;;8.70;;
55497;SDS011;41357;52.806;18.268;2023-06-14T06:55:00;20.70;;;8.38;;
55497;SDS011;41357;52.806;18.268;2023-06-14T06:57:27;12.02;;;8.75;;
55497;SDS011;41357;52.806;18.268;2023-06-14T06:59:54;16.27;;;7.88;;
55497;SDS011;41357;52.806;18.268;2023-06-14T07:02:20;15.18;;;8.50;;
55497;SDS011;41357;52.806;18.268;2023-06-14T07:04:46;12.68;;;8.23;;
55497;SDS011;41357;52.806;18.268;2023-06-14T07:07:12;15.40;;;8.38;;
55497;SDS011;41357;52.806;18.268;2023-06-14T07:09:38;12.70;;;8.10;;
55497;SDS011;41357;52.806;18.268;2023-06-14T07:12:06;12.45;;;8.60;;
55497;SDS011;41357;52.806;18.268;2023-06-14T07:14:33;12.65;;;7.80;;
55497;SDS011;41357;52.806;18.268;2023-06-14T07:16:59;12.25;;;7.10;;
55497;SDS011;41357;52.806;18.268;2023-06-14T07:19:25;10.57;;;7.95;;
55497;SDS011;41357;52.806;18.268;2023-06-14T07:21:52;11.10;;;7.68;;
55497;SDS011;41357;52.806;18.268;2023-06-14T07:24:18;12.88;;;7.25;;
55497;SDS011;41357;52.806;18.268;2023-06-14T07:26:46;13.88;;;8.10;;
55497;SDS011;41357;52.806;18.268;2023-06-14T07:29:14;13.43;;;8.23;;
55497;SDS011;41357;52.806;18.268;2023-06-14T07:31:41;11.82;;;7.95;;
55497;SDS011;41357;52.806;18.268;2023-06-14T07:34:08;13.38;;;7.85;;
55497;SDS011;41357;52.806;18.268;2023-06-14T07:36:34;15.10;;;9.10;;
55497;SDS011;41357;52.806;18.268;2023-06-14T07:39:01;13.38;;;8.43;;
55497;SDS011;41357;52.806;18.268;2023-06-14T07:41:28;15.07;;;8.13;;
55497;SDS011;41357;52.806;18.268;2023-06-14T07:43:54;13.07;;;6.70;;
55497;SDS011;41357;52.806;18.268;2023-06-14T07:46:20;10.85;;;7.20;;
55497;SDS011;41357;52.806;18.268;2023-06-14T07:48:46;25.70;;;7.78;;
55497;SDS011;41357;52.806;18.268;2023-06-14T07:51:13;10.95;;;7.00;;
55497;SDS011;41357;52.806;18.268;2023-06-14T07:53:39;9.88;;;6.95;;
55497;SDS011;41357;52.806;18.268;2023-06-14T07:56:06;13.93;;;7.32;;
55497;SDS011;41357;52.806;18.268;2023-06-14T07:58:32;10.88;;;7.22;;
55497;SDS011;41357;52.806;18.268;2023-06-14T08:00:58;12.23;;;7.25;;
55497;SDS011;41357;52.806;18.268;2023-06-14T08:03:25;10.07;;;7.72;;
55497;SDS011;41357;52.806;18.268;2023-06-14T08:05:51;12.52;;;7.20;;
55497;SDS011;41357;52.806;18.268;2023-06-14T08:08:17;11.07;;;7.45;;
55497;SDS011;41357;52.806;18.268;2023-06-14T08:10:44;15.27;;;8.30;;
55497;SDS011;41357;52.806;18.268;2023-06-14T08:13:10;10.57;;;7.43;;
55497;SDS011;41357;52.806;18.268;2023-06-14T08:15:36;15.73;;;8.00;;
55497;SDS011;41357;52.806;18.268;2023-06-14T08:18:02;15.73;;;7.70;;
55497;SDS011;41357;52.806;18.268;2023-06-14T08:20:28;14.43;;;9.30;;
55497;SDS011;41357;52.806;18.268;2023-06-14T08:22:56;11.70;;;8.35;;
55497;SDS011;41357;52.806;18.268;2023-06-14T08:25:23;12.18;;;8.43;;
55497;SDS011;41357;52.806;18.268;2023-06-14T08:27:49;13.75;;;8.50;;
55497;SDS011;41357;52.806;18.268;2023-06-14T08:30:16;12.93;;;8.60;;
55497;SDS011;41357;52.806;18.268;2023-06-14T08:32:42;12.88;;;9.10;;
55497;SDS011;41357;52.806;18.268;2023-06-14T08:35:09;20.80;;;9.82;;
55497;SDS011;41357;52.806;18.268;2023-06-14T08:37:38;17.60;;;9.10;;
55497;SDS011;41357;52.806;18.268;2023-06-14T08:40:06;12.48;;;8.25;;
55497;SDS011;41357;52.806;18.268;2023-06-14T08:42:38;11.35;;;8.27;;
55497;SDS011;41357;52.806;18.268;2023-06-14T08:45:04;12.05;;;8.07;;
55497;SDS011;41357;52.806;18.268;2023-06-14T08:47:31;14.65;;;8.65;;
55497;SDS011;41357;52.806;18.268;2023-06-14T08:50:01;13.55;;;8.15;;
55497;SDS011;41357;52.806;18.268;2023-06-14T08:52:29;17.75;;;8.10;;
55497;SDS011;41357;52.806;18.268;2023-06-14T08:54:59;14.75;;;7.45;;
55497;SDS011;41357;52.806;18.268;2023-06-14T08:57:25;10.80;;;6.90;;
55497;SDS011;41357;52.806;18.268;2023-06-14T08:59:55;14.85;;;7.10;;
55497;SDS011;41357;52.806;18.268;2023-06-14T09:02:22;12.18;;;7.18;;
55497;SDS011;41357;52.806;18.268;2023-06-14T09:04:48;12.02;;;7.00;;
55497;SDS011;41357;52.806;18.268;2023-06-14T09:07:17;11.50;;;7.22;;
55497;SDS011;41357;52.806;18.268;2023-06-14T09:09:43;10.35;;;6.38;;
55497;SDS011;41357;52.806;18.268;2023-06-14T09:12:10;9.07;;;6.65;;
55497;SDS011;41357;52.806;18.268;2023-06-14T09:14:37;12.05;;;6.70;;
55497;SDS011;41357;52.806;18.268;2023-06-14T09:17:06;12.75;;;6.30;;
55497;SDS011;41357;52.806;18.268;2023-06-14T09:19:32;15.18;;;7.10;;
55497;SDS011;41357;52.806;18.268;2023-06-14T09:22:00;16.95;;;6.78;;
55497;SDS011;41357;52.806;18.268;2023-06-14T09:24:26;14.60;;;6.85;;
55497;SDS011;41357;52.806;18.268;2023-06-14T09:26:52;16.63;;;6.10;;
55497;SDS011;41357;52.806;18.268;2023-06-14T09:29:19;8.55;;;5.80;;
55497;SDS011;41357;52.806;18.268;2023-06-14T09:31:46;9.90;;;6.00;;
55497;SDS011;41357;52.806;18.268;2023-06-14T09:34:12;7.63;;;5.38;;
55497;SDS011;41357;52.806;18.268;2023-06-14T09:36:39;6.35;;;4.50;;
55497;SDS011;41357;52.806;18.268;2023-06-14T09:39:07;11.00;;;4.75;;
55497;SDS011;41357;52.806;18.268;2023-06-14T09:41:34;10.70;;;5.47;;
55497;SDS011;41357;52.806;18.268;2023-06-14T09:44:02;12.95;;;5.45;;
55497;SDS011;41357;52.806;18.268;2023-06-14T09:46:29;12.85;;;4.65;;
55497;SDS011;41357;52.806;18.268;2023-06-14T09:48:55;6.97;;;4.60;;
55497;SDS011;41357;52.806;18.268;2023-06-14T09:51:25;10.07;;;5.15;;
55497;SDS011;41357;52.806;18.268;2023-06-14T09:56:22;9.18;;;5.82;;
55497;SDS011;41357;52.806;18.268;2023-06-14T09:58:50;12.32;;;6.53;;
55497;SDS011;41357;52.806;18.268;2023-06-14T10:01:19;10.20;;;6.05;;
55497;SDS011;41357;52.806;18.268;2023-06-14T10:03:46;12.65;;;7.55;;
55497;SDS011;41357;52.806;18.268;2023-06-14T10:06:13;13.05;;;6.65;;
55497;SDS011;41357;52.806;18.268;2023-06-14T10:08:39;17.00;;;8.40;;
55497;SDS011;41357;52.806;18.268;2023-06-14T10:11:06;13.38;;;7.60;;
55497;SDS011;41357;52.806;18.268;2023-06-14T10:13:32;14.02;;;6.65;;
55497;SDS011;41357;52.806;18.268;2023-06-14T10:16:07;10.10;;;6.70;;
55497;SDS011;41357;52.806;18.268;2023-06-14T10:18:59;13.88;;;7.72;;
55497;SDS011;41357;52.806;18.268;2023-06-14T10:24:00;10.45;;;7.03;;
55497;SDS011;41357;52.806;18.268;2023-06-14T10:26:27;11.45;;;7.72;;
55497;SDS011;41357;52.806;18.268;2023-06-14T10:29:00;10.18;;;7.28;;
55497;SDS011;41357;52.806;18.268;2023-06-14T10:31:45;13.40;;;7.00;;
55497;SDS011;41357;52.806;18.268;2023-06-14T10:34:12;10.90;;;6.50;;
55497;SDS011;41357;52.806;18.268;2023-06-14T10:36:41;8.45;;;6.05;;
55497;SDS011;41357;52.806;18.268;2023-06-14T10:39:14;9.70;;;6.20;;
55497;SDS011;41357;52.806;18.268;2023-06-14T10:41:40;14.93;;;6.22;;
55497;SDS011;41357;52.806;18.268;2023-06-14T10:46:39;11.40;;;6.50;;
55497;SDS011;41357;52.806;18.268;2023-06-14T10:49:06;8.50;;;6.00;;
55497;SDS011;41357;52.806;18.268;2023-06-14T10:51:44;15.23;;;5.82;;
55497;SDS011;41357;52.806;18.268;2023-06-14T10:54:13;9.05;;;5.95;;
55497;SDS011;41357;52.806;18.268;2023-06-14T10:56:52;16.55;;;6.30;;
55497;SDS011;41357;52.806;18.268;2023-06-14T10:59:19;11.37;;;5.90;;
55497;SDS011;41357;52.806;18.268;2023-06-14T11:04:15;12.57;;;7.20;;
55497;SDS011;41357;52.806;18.268;2023-06-14T11:09:20;10.65;;;5.53;;
55497;SDS011;41357;52.806;18.268;2023-06-14T11:11:47;9.85;;;7.53;;
55497;SDS011;41357;52.806;18.268;2023-06-14T11:14:14;12.20;;;7.03;;
55497;SDS011;41357;52.806;18.268;2023-06-14T11:16:40;11.70;;;8.00;;
55497;SDS011;41357;52.806;18.268;2023-06-14T11:19:06;10.15;;;6.45;;
55497;SDS011;41357;52.806;18.268;2023-06-14T11:21:32;11.95;;;6.70;;
55497;SDS011;41357;52.806;18.268;2023-06-14T11:23:59;13.32;;;6.97;;
55497;SDS011;41357;52.806;18.268;2023-06-14T11:26:28;12.13;;;6.88;;
55497;SDS011;41357;52.806;18.268;2023-06-14T11:28:56;9.00;;;6.50;;
55497;SDS011;41357;52.806;18.268;2023-06-14T11:31:22;8.27;;;6.00;;
55497;SDS011;41357;52.806;18.268;2023-06-14T11:33:55;8.70;;;7.25;;
55497;SDS011;41357;52.806;18.268;2023-06-14T11:36:22;11.63;;;7.60;;
55497;SDS011;41357;52.806;18.268;2023-06-14T11:38:48;12.38;;;7.32;;
55497;SDS011;41357;52.806;18.268;2023-06-14T11:41:14;10.57;;;7.40;;
55497;SDS011;41357;52.806;18.268;2023-06-14T11:43:40;11.95;;;7.38;;
55497;SDS011;41357;52.806;18.268;2023-06-14T11:46:12;11.73;;;7.40;;
55497;SDS011;41357;52.806;18.268;2023-06-14T11:48:42;11.93;;;7.65;;
55497;SDS011;41357;52.806;18.268;2023-06-14T11:51:10;9.40;;;7.15;;
55497;SDS011;41357;52.806;18.268;2023-06-14T11:53:36;13.65;;;8.27;;
55497;SDS011;41357;52.806;18.268;2023-06-14T11:56:02;13.07;;;7.15;;
55497;SDS011;41357;52.806;18.268;2023-06-14T11:58:29;9.70;;;5.40;;
55497;SDS011;41357;52.806;18.268;2023-06-14T12:00:55;10.70;;;5.30;;
55497;SDS011;41357;52.806;18.268;2023-06-14T12:03:24;10.90;;;4.40;;
55497;SDS011;41357;52.806;18.268;2023-06-14T12:08:19;7.97;;;4.28;;
55497;SDS011;41357;52.806;18.268;2023-06-14T12:10:46;9.63;;;3.90;;
55497;SDS011;41357;52.806;18.268;2023-06-14T12:13:12;6.15;;;3.83;;
55497;SDS011;41357;52.806;18.268;2023-06-14T12:15:38;4.53;;;2.65;;
55497;SDS011;41357;52.806;18.268;2023-06-14T12:18:05;4.85;;;2.75;;
55497;SDS011;41357;52.806;18.268;2023-06-14T12:20:33;6.10;;;2.92;;
55497;SDS011;41357;52.806;18.268;2023-06-14T12:23:02;5.72;;;2.58;;
55497;SDS011;41357;52.806;18.268;2023-06-14T12:25:29;4.55;;;2.53;;
55497;SDS011;41357;52.806;18.268;2023-06-14T12:27:59;9.45;;;2.88;;
55497;SDS011;41357;52.806;18.268;2023-06-14T12:30:29;3.58;;;2.13;;
55497;SDS011;41357;52.806;18.268;2023-06-14T12:32:55;3.78;;;1.83;;
55497;SDS011;41357;52.806;18.268;2023-06-14T12:35:21;2.75;;;1.90;;
55497;SDS011;41357;52.806;18.268;2023-06-14T12:37:48;3.17;;;2.10;;
55497;SDS011;41357;52.806;18.268;2023-06-14T12:40:14;4.90;;;1.90;;
55497;SDS011;41357;52.806;18.268;2023-06-14T12:42:40;3.80;;;1.98;;
55497;SDS011;41357;52.806;18.268;2023-06-14T12:45:07;3.13;;;1.83;;
55497;SDS011;41357;52.806;18.268;2023-06-14T12:47:33;4.50;;;2.10;;
55497;SDS011;41357;52.806;18.268;2023-06-14T12:49:59;5.93;;;1.98;;
55497;SDS011;41357;52.806;18.268;2023-06-14T12:52:26;5.07;;;2.38;;
55497;SDS011;41357;52.806;18.268;2023-06-14T12:54:52;3.20;;;1.95;;
55497;SDS011;41357;52.806;18.268;2023-06-14T12:57:18;3.28;;;2.17;;
55497;SDS011;41357;52.806;18.268;2023-06-14T12:59:44;4.97;;;2.00;;
55497;SDS011;41357;52.806;18.268;2023-06-14T13:02:15;2.92;;;1.88;;
55497;SDS011;41357;52.806;18.268;2023-06-14T13:07:08;5.68;;;2.25;;
55497;SDS011;41357;52.806;18.268;2023-06-14T13:09:35;4.18;;;2.25;;
55497;SDS011;41357;52.806;18.268;2023-06-14T13:12:01;4.53;;;2.10;;
55497;SDS011;41357;52.806;18.268;2023-06-14T13:14:28;3.47;;;2.03;;
55497;SDS011;41357;52.806;18.268;2023-06-14T13:16:54;7.57;;;2.33;;
55497;SDS011;41357;52.806;18.268;2023-06-14T13:19:20;4.32;;;2.30;;
55497;SDS011;41357;52.806;18.268;2023-06-14T13:21:47;3.40;;;2.05;;
55497;SDS011;41357;52.806;18.268;2023-06-14T13:24:13;7.20;;;2.65;;
55497;SDS011;41357;52.806;18.268;2023-06-14T13:26:39;4.88;;;2.13;;
55497;SDS011;41357;52.806;18.268;2023-06-14T13:29:05;9.32;;;2.40;;
55497;SDS011;41357;52.806;18.268;2023-06-14T13:31:31;4.68;;;2.13;;
55497;SDS011;41357;52.806;18.268;2023-06-14T13:33:58;7.80;;;2.40;;
55497;SDS011;41357;52.806;18.268;2023-06-14T13:36:24;7.72;;;2.30;;
55497;SDS011;41357;52.806;18.268;2023-06-14T13:38:50;3.72;;;2.42;;
55497;SDS011;41357;52.806;18.268;2023-06-14T13:41:18;3.03;;;1.98;;
55497;SDS011;41357;52.806;18.268;2023-06-14T13:43:44;3.80;;;2.38;;
55497;SDS011;41357;52.806;18.268;2023-06-14T13:46:10;6.85;;;2.28;;
55497;SDS011;41357;52.806;18.268;2023-06-14T13:48:36;4.95;;;2.50;;
55497;SDS011;41357;52.806;18.268;2023-06-14T13:51:02;7.80;;;2.22;;
55497;SDS011;41357;52.806;18.268;2023-06-14T13:53:29;4.45;;;2.42;;
55497;SDS011;41357;52.806;18.268;2023-06-14T13:55:55;3.42;;;2.50;;
55497;SDS011;41357;52.806;18.268;2023-06-14T13:58:21;5.65;;;2.22;;
55497;SDS011;41357;52.806;18.268;2023-06-14T14:00:49;5.15;;;2.67;;
55497;SDS011;41357;52.806;18.268;2023-06-14T14:03:15;4.85;;;2.40;;
55497;SDS011;41357;52.806;18.268;2023-06-14T14:05:41;6.78;;;2.50;;
55497;SDS011;41357;52.806;18.268;2023-06-14T14:08:07;7.78;;;2.42;;
55497;SDS011;41357;52.806;18.268;2023-06-14T14:10:33;4.35;;;2.58;;
55497;SDS011;41357;52.806;18.268;2023-06-14T14:13:00;4.60;;;2.63;;
55497;SDS011;41357;52.806;18.268;2023-06-14T14:15:26;4.65;;;2.38;;
55497;SDS011;41357;52.806;18.268;2023-06-14T14:17:53;6.60;;;3.38;;
55497;SDS011;41357;52.806;18.268;2023-06-14T14:20:22;5.32;;;2.75;;
55497;SDS011;41357;52.806;18.268;2023-06-14T14:22:48;3.75;;;2.88;;
55497;SDS011;41357;52.806;18.268;2023-06-14T14:25:14;6.47;;;2.67;;
55497;SDS011;41357;52.806;18.268;2023-06-14T14:27:40;7.07;;;2.83;;
55497;SDS011;41357;52.806;18.268;2023-06-14T14:30:07;6.65;;;2.40;;
55497;SDS011;41357;52.806;18.268;2023-06-14T14:32:33;3.63;;;2.33;;
55497;SDS011;41357;52.806;18.268;2023-06-14T14:34:59;4.40;;;2.58;;
55497;SDS011;41357;52.806;18.268;2023-06-14T14:37:25;8.05;;;2.75;;
55497;SDS011;41357;52.806;18.268;2023-06-14T14:39:51;5.68;;;2.50;;
55497;SDS011;41357;52.806;18.268;2023-06-14T14:42:17;6.53;;;2.40;;
55497;SDS011;41357;52.806;18.268;2023-06-14T14:44:44;5.63;;;2.70;;